Share

Long Lake, SD (57457)

RAWS SAND LAKE SD US (MLLKS2) Elev 2029 ft | 45.88 °N, 99.41 °W | Change Station
Active Advisory: Wind Advisory

Current weather conditions updated 57 minutes ago

Overcast
Overcast
32 °F
Feels Like 21 °F
N
18
Wind Variable Wind from ESE
Gusts 22.0 mph
Sunrise 6:45 AM
Sunset 8:27 PM
Moon Waning Gibbous

Today is forecast to be Much Warmer than yesterday.

Pressure 30.22 in
Visibility 10.0 miles
Clouds Mostly Cloudy 6000 ft
Mostly Cloudy 7500 ft
Overcast 11000 ft
Windchill 21 °F
Dew Point 20 °F
Humidity 60%
Rainfall 0.00 in
Snow Depth Not available.
UV 0 out of 16
Pollen 7.60 out of 12
Air Quality Not available.
Flu Activity Sporadic
METAR KABR 180853Z AUTO 11011KT 10SM BKN060 BKN075 OVC110 01/M07 A3018 RMK AO2 SLP232 T00111072 58007

More Conditions Fewer Conditions

Pressure 30.22 in
Visibility 10.0 miles
Clouds Mostly Cloudy 6000 ft
Mostly Cloudy 7500 ft
Overcast 11000 ft
Windchill 21 °F
Dew Point 20 °F
Humidity 60%
Rainfall 0.00 in
Snow Depth Not available.
UV 0 out of 16
Pollen 7.60 out of 12
Air Quality Not available.
Flu Activity Sporadic
METAR KABR 180853Z AUTO 11011KT 10SM BKN060 BKN075 OVC110 01/M07 A3018 RMK AO2 SLP232 T00111072 58007

More Conditions Fewer Conditions

10-Day Forecast

Almanac

Astronomy

Apr. 18, 2014 Rise Set
Actual Time 6:45 AM CDT 8:27 PM CDT
Civil Twilight 6:14 AM CDT 8:59 PM CDT
Nautical Twilight 5:36 AM CDT 9:37 PM CDT
Astronomical Twilight 4:54 AM CDT 10:19 PM CDT
Moon No Moon Rise 9:02 AM CDT
Length of Visible Light 14h 44m
Length of Day
13h 41m
Tomorrow will be 3m 2s longer.
Waning Gibbous, 89% of the Moon is Illuminated
Today
Waning Gibbous
Apr 22
Last Quarter
Apr 29
New
May 6
First Quarter
May 14
Full

Today's Extremes

State Highs State Lows

Community

  • SUNRISE THROUGH THE TREES.
    SUNRISE THROUGH THE TREES.
  • Dog Wood Blossoms
    Dog Wood Blossoms
  • Morning Light
    Morning Light
  • New Day
    New Day
  • Lake Michigan Sunrise
    Lake Michigan Sunrise

WunderPhotos

Upload Photos

1,702,299 photos uploaded!

WunderBlogs® & News

Nearby

Snow Depth

Station Depth Elevation
North Rapid Creek 22 in 6130 ft
Blind Park 23 in 6890 ft

Coastal Water Temperatures

Place Temperature
No Stations Reporting

Earthquake Activity

City Distance Mag. Time & Date
No recent earthquake activity has been reported nearby.
Minimum magnitude displayed is 2.5.

Nearby Weather Stations

Station Location Temp. Windchill Dew Point Humidity Wind Precip. Elev Updated Type
RAWS SAND LAKE SD, Longlake, SD 32 °F 21 °F 20 °F 60% ESE  at  18 mph 0.00 in / hr 2029 ft 3:15 AM CDT MADIS
Eureka, South Dakota, Eureka, SD 33.2 °F 25 °F 23 °F 67% ESE  at  10.0 mph 0.00 in / hr 1873 ft 4:02 AM CDT Normal
State line, Leola, SD 30.4 °F 27 °F 23 °F 74% SSE  at  3.7 mph - / hr 1617 ft 4:07 AM CDT Normal

Show More Stations Show Fewer Stations

What do you think?

We're not finished. Please let us know what you like, what you don't like, and what you are still missing.